Terminal Aerodrome Forecast
Issued by NWS

Home | Current Version | Previous Version | Graphics & Text | Print | Product List | Glossary On
Versions: 1 2 3 4 5 6 7 8 9 10 11 12 13 14 15 16 17 18 19 20 21 22
000
FTUS42 KMHX 010553
TAFPGV
TAF
KPGV 010553Z 0106/0206 00000KT 6SM BR VCSH BKN035 BKN080
      TEMPO 0106/0108 1SM BR BKN009
     FM011200 35008KT 6SM BR VCSH BKN035
     FM011600 01014G22KT 6SM SHRA BR OVC015
     FM012300 36005KT P6SM BKN025
      AMD LTD TO CLD VIS AND WIND=

USA.gov is the U.S. government's official web portal to all federal, state and local government web resources and services.